Time;durP1;ratioP1;P1;durP2;ratioP2;P2;SDS_P1;SDS_P2;PMS_P1;PMS_P2;Temp;Humidity;BMP_temperature;BMP_pressure;BME280_temperature;BME280_humidity;BME280_pressure;Samples;Min_cycle;Max_cycle;Signal;HPM_P1;HPM_P2
2023/03/08 00:01:36;;;;;;;3.08;2.00;;;5.20;99.90;;;;;;5093337;28;20262;-76
2023/03/08 00:04:06;;;;;;;1.90;1.80;;;5.10;99.90;;;;;;5095084;28;20227;-74
2023/03/08 00:06:33;;;;;;;5.65;2.25;;;5.10;99.90;;;;;;5079205;28;20223;-75
2023/03/08 00:09:05;;;;;;;4.90;2.60;;;5.10;99.90;;;;;;5096550;28;20255;-75
2023/03/08 00:11:32;;;;;;;8.68;2.60;;;5.10;99.90;;;;;;5095418;28;20721;-75
2023/03/08 00:14:00;;;;;;;2.05;1.85;;;5.10;99.90;;;;;;5094693;28;20227;-75
2023/03/08 00:16:27;;;;;;;6.40;2.90;;;5.00;99.90;;;;;;5077786;28;20664;-74
2023/03/08 00:18:56;;;;;;;3.75;2.10;;;5.00;99.90;;;;;;5073905;28;20293;-74
2023/03/08 00:21:28;;;;;;;4.30;2.80;;;5.00;99.90;;;;;;5074736;28;20227;-77
2023/03/08 00:23:55;;;;;;;3.25;2.45;;;5.00;99.90;;;;;;5093545;28;20220;-74
2023/03/08 00:26:22;;;;;;;3.30;1.85;;;5.00;99.90;;;;;;5093216;28;20242;-75
2023/03/08 00:28:51;;;;;;;7.20;3.35;;;4.90;99.90;;;;;;5093408;28;20235;-76
2023/03/08 00:31:18;;;;;;;8.75;2.85;;;4.90;99.90;;;;;;5093179;28;20224;-75
2023/03/08 00:33:52;;;;;;;6.15;3.00;;;4.90;99.90;;;;;;5095442;28;20297;-74
2023/03/08 00:36:21;;;;;;;18.17;10.60;;;4.90;99.90;;;;;;5091995;28;20284;-76
2023/03/08 00:38:50;;;;;;;22.85;14.38;;;4.80;99.90;;;;;;5092551;28;20219;-77
2023/03/08 00:41:17;;;;;;;7.65;4.82;;;4.80;99.90;;;;;;5093103;28;20223;-76
2023/03/08 00:43:44;;;;;;;5.20;4.15;;;4.80;99.90;;;;;;5093934;28;20721;-74
2023/03/08 00:46:11;;;;;;;5.60;3.10;;;4.80;99.90;;;;;;5092689;28;20229;-74
2023/03/08 00:48:39;;;;;;;6.72;3.80;;;4.80;99.90;;;;;;5092637;28;20231;-76
2023/03/08 00:51:12;;;;;;;2.78;2.55;;;4.80;99.90;;;;;;5095459;28;20427;-74
2023/03/08 00:53:40;;;;;;;5.38;3.70;;;4.80;99.90;;;;;;5088185;28;20223;-76
2023/03/08 00:56:08;;;;;;;5.30;3.08;;;4.80;99.90;;;;;;5074155;28;20228;-75
2023/03/08 00:58:38;;;;;;;2.95;2.53;;;4.80;99.90;;;;;;5074557;28;20542;-76
2023/03/08 01:01:07;;;;;;;4.35;3.42;;;4.80;99.90;;;;;;5075337;28;20228;-74
2023/03/08 01:03:35;;;;;;;3.70;2.65;;;4.80;99.90;;;;;;5075203;28;20231;-74
2023/03/08 01:06:08;;;;;;;3.53;2.80;;;4.80;99.90;;;;;;5075745;28;20665;-75
2023/03/08 01:08:35;;;;;;;4.60;2.67;;;4.80;99.90;;;;;;5074577;28;20314;-75
2023/03/08 01:11:04;;;;;;;4.88;2.65;;;4.80;99.90;;;;;;5075244;28;20236;-74
2023/03/08 01:13:33;;;;;;;4.43;2.70;;;4.80;99.90;;;;;;5063847;28;20258;-75
2023/03/08 01:16:02;;;;;;;3.47;3.17;;;4.80;99.90;;;;;;5072983;28;20315;-75
2023/03/08 01:18:29;;;;;;;3.10;2.80;;;4.80;99.90;;;;;;5073782;28;20272;-74
2023/03/08 01:20:57;;;;;;;6.55;3.03;;;4.80;99.90;;;;;;5074797;28;20220;-76
2023/03/08 01:23:25;;;;;;;3.25;2.95;;;4.80;99.90;;;;;;5092212;28;20231;-76
2023/03/08 01:25:59;;;;;;;5.55;2.50;;;4.80;99.90;;;;;;5094423;28;20237;-75
2023/03/08 01:28:30;;;;;;;4.20;2.97;;;4.70;99.90;;;;;;5091577;28;20239;-75
2023/03/08 01:31:02;;;;;;;4.00;3.03;;;4.70;99.90;;;;;;5093697;28;20242;-75
2023/03/08 01:33:29;;;;;;;6.60;2.85;;;4.70;99.90;;;;;;5092926;28;20288;-75
2023/03/08 01:36:00;;;;;;;9.10;5.68;;;4.70;99.90;;;;;;5092990;28;20571;-77
2023/03/08 01:38:27;;;;;;;9.68;5.28;;;4.70;99.90;;;;;;5092745;28;20223;-77
2023/03/08 01:40:57;;;;;;;5.18;3.50;;;4.60;99.90;;;;;;5092882;28;20280;-75
2023/03/08 01:43:28;;;;;;;3.95;3.55;;;4.60;99.90;;;;;;5093081;28;20220;-76
2023/03/08 01:46:23;;;;;;;6.40;4.68;;;4.60;99.90;;;;;;5092840;28;20235;-74
2023/03/08 01:48:55;;;;;;;5.00;4.50;;;4.60;99.90;;;;;;5094036;28;20575;-74
2023/03/08 01:51:29;;;;;;;5.82;4.13;;;4.50;99.90;;;;;;5094151;28;20242;-76
2023/03/08 01:54:00;;;;;;;6.88;4.13;;;4.50;99.90;;;;;;5083758;28;20546;-75
2023/03/08 01:56:27;;;;;;;5.38;4.05;;;4.50;99.90;;;;;;5072155;28;20685;-74
2023/03/08 01:58:57;;;;;;;5.90;4.18;;;4.50;99.90;;;;;;5071923;28;20261;-74
2023/03/08 02:01:24;;;;;;;4.70;3.80;;;4.40;99.90;;;;;;5071284;28;20219;-76
2023/03/08 02:03:52;;;;;;;9.52;3.60;;;4.40;99.90;;;;;;5071376;28;20224;-75
2023/03/08 02:06:31;;;;;;;4.70;4.22;;;4.40;99.90;;;;;;5072078;28;20224;-76
2023/03/08 02:09:02;;;;;;;10.23;4.80;;;4.40;99.90;;;;;;5047975;28;20219;-74
2023/03/08 02:11:29;;;;;;;5.20;4.57;;;4.40;99.90;;;;;;5092628;28;20269;-74
2023/03/08 02:13:58;;;;;;;8.57;5.10;;;4.30;99.90;;;;;;5092096;28;20239;-77
2023/03/08 02:16:26;;;;;;;4.82;4.35;;;4.30;99.90;;;;;;5091480;28;20741;-75
2023/03/08 02:18:58;;;;;;;5.40;4.90;;;4.30;99.90;;;;;;5085970;28;20223;-74
2023/03/08 02:24:41;;;;;;;6.95;5.07;;;4.30;99.90;;;;;;5069456;28;20215;-75
2023/03/08 02:27:21;;;;;;;7.43;4.60;;;4.30;99.90;;;;;;5092357;28;20227;-76
2023/03/08 02:29:48;;;;;;;4.85;4.50;;;4.30;99.90;;;;;;5090712;28;20233;-74
2023/03/08 02:32:16;;;;;;;5.22;4.72;;;4.30;99.90;;;;;;5092237;28;20276;-75
2023/03/08 02:34:43;;;;;;;5.40;4.90;;;4.30;99.90;;;;;;5091596;28;20235;-75
2023/03/08 02:37:20;;;;;;;8.57;5.45;;;4.30;99.90;;;;;;5095861;28;20249;-76
2023/03/08 02:39:54;;;;;;;7.30;5.35;;;4.30;99.90;;;;;;5093874;28;20251;-76
2023/03/08 02:42:21;;;;;;;8.23;5.60;;;4.30;99.90;;;;;;5080435;28;20227;-73
2023/03/08 02:44:48;;;;;;;8.05;5.90;;;4.30;99.90;;;;;;5083004;28;20251;-75
2023/03/08 02:47:15;;;;;;;9.23;6.55;;;4.30;99.90;;;;;;5091943;28;20235;-75
2023/03/08 02:49:42;;;;;;;11.07;8.77;;;4.30;99.90;;;;;;5092025;28;20766;-74
2023/03/08 02:52:09;;;;;;;15.18;6.72;;;4.30;99.90;;;;;;5091644;28;20253;-73
2023/03/08 02:54:36;;;;;;;13.00;8.73;;;4.30;99.90;;;;;;5091552;28;20314;-75
2023/03/08 02:57:05;;;;;;;11.48;7.65;;;4.30;99.90;;;;;;5091945;28;20219;-74
2023/03/08 02:59:32;;;;;;;8.15;7.43;;;4.30;99.90;;;;;;5090883;28;20227;-74
2023/03/08 03:01:58;;;;;;;13.15;7.40;;;4.40;99.90;;;;;;5087176;28;20219;-75
2023/03/08 03:04:30;;;;;;;8.82;6.75;;;4.40;99.90;;;;;;5091674;28;20631;-76
2023/03/08 03:06:57;;;;;;;11.07;7.30;;;4.40;99.90;;;;;;5091355;28;20219;-76
2023/03/08 03:09:24;;;;;;;9.88;7.15;;;4.40;99.90;;;;;;5091435;28;20223;-76
2023/03/08 03:11:51;;;;;;;9.23;8.27;;;4.40;99.90;;;;;;5091665;28;20563;-75
2023/03/08 03:14:20;;;;;;;10.00;8.07;;;4.40;99.90;;;;;;5095567;28;20231;-76
2023/03/08 03:16:47;;;;;;;7.88;7.07;;;4.40;99.90;;;;;;5095805;28;20485;-76
2023/03/08 03:19:15;;;;;;;12.07;8.50;;;4.40;99.90;;;;;;5095088;28;20259;-75
2023/03/08 03:21:41;;;;;;;10.90;8.43;;;4.40;99.90;;;;;;5094039;28;20293;-75
2023/03/08 03:24:08;;;;;;;14.27;8.85;;;4.40;99.90;;;;;;5095875;28;20235;-76
2023/03/08 03:26:35;;;;;;;10.98;9.82;;;4.40;99.90;;;;;;5094426;28;20219;-76
2023/03/08 03:29:02;;;;;;;10.18;7.93;;;4.40;99.90;;;;;;5093669;28;20223;-76
2023/03/08 03:31:31;;;;;;;9.30;8.40;;;4.40;99.90;;;;;;5080523;28;20359;-76
2023/03/08 03:33:58;;;;;;;9.07;8.15;;;4.40;99.90;;;;;;5095753;28;20241;-75
2023/03/08 03:36:28;;;;;;;12.15;8.60;;;4.40;99.90;;;;;;5094440;28;20367;-76
2023/03/08 03:38:55;;;;;;;10.88;9.13;;;4.40;99.90;;;;;;5095267;28;20227;-75
2023/03/08 03:41:23;;;;;;;8.75;7.55;;;4.40;99.90;;;;;;5074681;28;20227;-74
2023/03/08 03:43:50;;;;;;;13.68;8.07;;;4.30;99.90;;;;;;5076762;28;20586;-75
2023/03/08 03:46:19;;;;;;;9.65;8.68;;;4.40;99.90;;;;;;5074274;28;20235;-75
2023/03/08 03:48:48;;;;;;;9.85;7.78;;;4.30;99.90;;;;;;5074871;28;20232;-76
2023/03/08 03:51:19;;;;;;;8.88;7.97;;;4.30;99.90;;;;;;5073680;28;20231;-73
2023/03/08 03:53:47;;;;;;;13.55;9.02;;;4.30;99.90;;;;;;5074764;28;20297;-74
2023/03/08 03:56:15;;;;;;;8.63;7.40;;;4.30;99.90;;;;;;5074199;28;20224;-74
2023/03/08 03:58:43;;;;;;;11.77;8.73;;;4.30;99.90;;;;;;5073840;28;20232;-75
2023/03/08 04:01:12;;;;;;;9.15;8.02;;;4.30;99.90;;;;;;5074067;28;20289;-75
2023/03/08 04:03:38;;;;;;;10.27;8.48;;;4.30;99.90;;;;;;5061321;28;20228;-76
2023/03/08 04:06:09;;;;;;;12.63;8.48;;;4.30;99.90;;;;;;5073577;28;20259;-74
2023/03/08 04:08:40;;;;;;;14.98;8.43;;;4.30;99.90;;;;;;5074285;28;20232;-75
2023/03/08 04:11:08;;;;;;;9.32;8.10;;;4.30;99.90;;;;;;5073639;28;20228;-74
2023/03/08 04:13:35;;;;;;;11.10;8.45;;;4.30;99.90;;;;;;5074297;28;20611;-74
2023/03/08 04:16:09;;;;;;;10.18;9.15;;;4.40;99.90;;;;;;5073729;28;20220;-74
2023/03/08 04:18:36;;;;;;;10.82;8.13;;;4.40;99.90;;;;;;5074672;28;20281;-76
2023/03/08 04:21:03;;;;;;;10.60;8.50;;;4.40;99.90;;;;;;5073497;28;20236;-74
2023/03/08 04:23:32;;;;;;;12.30;10.70;;;4.40;99.90;;;;;;5073079;28;20236;-76
2023/03/08 04:25:59;;;;;;;9.88;8.23;;;4.40;99.90;;;;;;5073822;28;20223;-77
2023/03/08 04:28:26;;;;;;;9.88;7.40;;;4.40;99.90;;;;;;5073314;28;20231;-76
2023/03/08 04:30:53;;;;;;;11.80;9.45;;;4.40;99.90;;;;;;5073650;28;20231;-74
2023/03/08 04:33:21;;;;;;;9.75;8.15;;;4.40;99.90;;;;;;5073466;28;20612;-74
2023/03/08 04:35:48;;;;;;;10.23;9.15;;;4.40;99.90;;;;;;5073481;28;20231;-74
2023/03/08 04:38:15;;;;;;;10.05;8.13;;;4.40;99.90;;;;;;5072654;28;20334;-75
2023/03/08 04:41:04;;;;;;;8.63;7.70;;;4.40;99.90;;;;;;5088213;28;20262;-76
2023/03/08 04:43:32;;;;;;;11.18;8.25;;;4.40;99.90;;;;;;5082439;28;20231;-75
2023/03/08 04:46:00;;;;;;;10.90;8.00;;;4.40;99.90;;;;;;5093473;28;20286;-74
2023/03/08 04:48:27;;;;;;;10.45;7.93;;;4.40;99.90;;;;;;5093192;28;20231;-74
2023/03/08 04:50:54;;;;;;;12.60;9.00;;;4.40;99.90;;;;;;5093400;28;20536;-74
2023/03/08 04:53:22;;;;;;;8.52;7.63;;;4.40;99.90;;;;;;5093057;28;20219;-75
2023/03/08 04:55:51;;;;;;;8.77;7.88;;;4.40;99.90;;;;;;5093689;28;20230;-75
2023/03/08 04:58:19;;;;;;;14.10;9.20;;;4.40;99.90;;;;;;5092375;28;20288;-74
2023/03/08 05:00:46;;;;;;;13.50;7.15;;;4.40;99.90;;;;;;5093381;28;20679;-75
2023/03/08 05:03:13;;;;;;;8.90;8.02;;;4.30;99.90;;;;;;5093107;28;20231;-74
2023/03/08 05:05:46;;;;;;;8.68;7.78;;;4.30;99.90;;;;;;5093139;28;20227;-76
2023/03/08 05:08:13;;;;;;;11.52;8.35;;;4.30;99.90;;;;;;5092956;28;20250;-76
2023/03/08 05:10:40;;;;;;;12.82;9.27;;;4.30;99.90;;;;;;5093279;28;20253;-74
2023/03/08 05:13:08;;;;;;;9.10;8.00;;;4.20;99.90;;;;;;5093167;28;20319;-74
2023/03/08 05:15:37;;;;;;;12.27;8.70;;;4.20;99.90;;;;;;5093008;28;20223;-75
2023/03/08 05:18:05;;;;;;;10.55;8.43;;;4.20;99.90;;;;;;5093343;28;20628;-74
2023/03/08 05:20:31;;;;;;;11.18;7.88;;;4.20;99.90;;;;;;5092315;28;20566;-76
2023/03/08 05:23:01;;;;;;;9.25;8.23;;;4.20;99.90;;;;;;5093425;28;20250;-76
2023/03/08 05:25:29;;;;;;;10.05;9.05;;;4.10;99.90;;;;;;5092495;28;20532;-76
2023/03/08 05:27:57;;;;;;;9.35;7.78;;;4.10;99.90;;;;;;5092882;28;20658;-76
2023/03/08 05:30:25;;;;;;;9.57;8.30;;;4.10;99.90;;;;;;5092081;28;20239;-77
2023/03/08 05:32:52;;;;;;;11.05;8.93;;;4.10;99.90;;;;;;5093204;28;20280;-76
2023/03/08 05:35:19;;;;;;;11.02;8.23;;;4.10;99.90;;;;;;5089984;28;20630;-75
2023/03/08 05:37:46;;;;;;;10.23;8.95;;;4.10;99.90;;;;;;5093647;28;20696;-76
2023/03/08 05:40:13;;;;;;;13.55;9.23;;;4.10;99.90;;;;;;5093565;28;20594;-76
2023/03/08 05:42:40;;;;;;;10.85;9.27;;;4.10;99.90;;;;;;5093177;28;20230;-74
2023/03/08 05:45:13;;;;;;;11.38;9.10;;;4.10;99.90;;;;;;5094067;28;20227;-75
2023/03/08 05:47:42;;;;;;;13.43;8.98;;;4.10;99.90;;;;;;5101014;28;20277;-74
2023/03/08 05:50:10;;;;;;;10.65;8.85;;;4.10;99.90;;;;;;5097867;28;20235;-74
2023/03/08 05:52:37;;;;;;;7.38;6.65;;;4.10;99.90;;;;;;5097178;28;20700;-75
2023/03/08 05:55:05;;;;;;;10.32;8.18;;;4.10;99.90;;;;;;5100186;28;20224;-73
2023/03/08 05:57:32;;;;;;;8.65;7.70;;;4.10;99.90;;;;;;5098809;28;20251;-76
2023/03/08 05:59:59;;;;;;;10.80;8.60;;;4.10;99.90;;;;;;5103434;28;20223;-75
2023/03/08 06:02:26;;;;;;;8.90;7.45;;;4.10;99.90;;;;;;5102494;28;20234;-75
2023/03/08 06:04:54;;;;;;;13.35;7.40;;;4.10;99.90;;;;;;5100481;28;20219;-73
2023/03/08 06:07:21;;;;;;;9.55;6.65;;;4.10;99.90;;;;;;5099489;28;20220;-75
2023/03/08 06:09:50;;;;;;;9.70;7.25;;;4.20;99.90;;;;;;5100869;28;20231;-75
2023/03/08 06:12:18;;;;;;;9.32;8.25;;;4.20;99.90;;;;;;5097350;28;20219;-76
2023/03/08 06:14:45;;;;;;;8.30;7.32;;;4.20;99.90;;;;;;5098577;28;20216;-75
2023/03/08 06:17:12;;;;;;;9.48;7.30;;;4.30;99.90;;;;;;5098638;28;20313;-76
2023/03/08 06:19:39;;;;;;;8.35;7.20;;;4.30;99.90;;;;;;5099251;28;20253;-75
2023/03/08 06:22:12;;;;;;;10.30;7.53;;;4.30;99.90;;;;;;5099321;28;20288;-73
2023/03/08 06:24:39;;;;;;;8.60;7.10;;;4.30;99.90;;;;;;5079760;28;20228;-75
2023/03/08 06:27:06;;;;;;;7.50;6.80;;;4.30;99.90;;;;;;5096302;28;20234;-75
2023/03/08 06:29:33;;;;;;;8.38;6.43;;;4.30;99.90;;;;;;5097197;28;20253;-73
2023/03/08 06:32:00;;;;;;;8.10;7.30;;;4.30;99.90;;;;;;5102223;28;20227;-74
2023/03/08 06:34:27;;;;;;;10.30;7.57;;;4.30;99.90;;;;;;5105033;28;20215;-74
2023/03/08 06:36:58;;;;;;;7.75;7.00;;;4.30;99.90;;;;;;5107484;28;20253;-74
2023/03/08 06:39:29;;;;;;;8.18;7.35;;;4.30;99.90;;;;;;5093802;28;20231;-75
2023/03/08 06:41:56;;;;;;;8.40;7.22;;;4.40;99.90;;;;;;5094521;28;20237;-73
2023/03/08 06:44:24;;;;;;;8.95;7.82;;;4.40;99.90;;;;;;5092985;28;20223;-74
2023/03/08 06:46:50;;;;;;;8.32;7.45;;;4.40;99.90;;;;;;5094336;28;20234;-74
2023/03/08 06:49:18;;;;;;;8.43;6.95;;;4.40;99.90;;;;;;5098464;28;20249;-74
2023/03/08 06:51:45;;;;;;;7.90;7.10;;;4.40;99.90;;;;;;5099479;28;20230;-76
2023/03/08 06:54:16;;;;;;;9.18;6.68;;;4.40;99.90;;;;;;5101704;28;20223;-74
2023/03/08 06:56:45;;;;;;;7.68;7.00;;;4.40;99.90;;;;;;5102777;28;20637;-76
2023/03/08 06:59:13;;;;;;;8.05;7.35;;;4.50;99.90;;;;;;5103132;28;20673;-75
2023/03/08 07:01:41;;;;;;;9.57;7.30;;;4.40;99.90;;;;;;5100602;28;20231;-74
2023/03/08 07:04:08;;;;;;;8.07;7.07;;;4.40;99.90;;;;;;5098760;28;20284;-74
2023/03/08 07:06:35;;;;;;;8.13;7.30;;;4.50;99.90;;;;;;5095785;28;20234;-76
2023/03/08 07:09:03;;;;;;;7.90;7.20;;;4.50;99.90;;;;;;5096410;28;20227;-76
2023/03/08 07:11:38;;;;;;;9.45;7.75;;;4.50;99.90;;;;;;5104911;28;20223;-76
2023/03/08 07:14:06;;;;;;;8.98;7.38;;;4.60;99.90;;;;;;5096502;28;20223;-76
2023/03/08 07:16:33;;;;;;;9.30;7.45;;;4.60;99.90;;;;;;5087966;28;20231;-75
2023/03/08 07:19:02;;;;;;;8.50;7.20;;;4.60;99.90;;;;;;5095355;28;20285;-76
2023/03/08 07:21:29;;;;;;;8.73;7.05;;;4.70;99.90;;;;;;5095455;28;20249;-75
2023/03/08 07:23:58;;;;;;;8.93;7.88;;;4.70;99.90;;;;;;5094934;28;20277;-74
2023/03/08 07:26:25;;;;;;;9.07;7.45;;;4.70;99.90;;;;;;5095636;28;20219;-76
2023/03/08 07:28:52;;;;;;;8.63;7.05;;;4.70;99.90;;;;;;5093004;28;20285;-76
2023/03/08 07:31:20;;;;;;;10.88;7.97;;;4.80;99.90;;;;;;5096078;28;20215;-75
2023/03/08 07:33:47;;;;;;;10.68;7.35;;;4.80;99.90;;;;;;5095460;28;20319;-76
2023/03/08 07:36:14;;;;;;;11.85;8.20;;;4.80;99.90;;;;;;5094300;28;20243;-75
2023/03/08 07:38:41;;;;;;;10.02;9.10;;;4.80;99.90;;;;;;5095034;28;20234;-75
2023/03/08 07:41:09;;;;;;;8.15;7.22;;;4.80;99.90;;;;;;5092068;28;20224;-75
2023/03/08 07:43:36;;;;;;;8.38;7.15;;;4.90;99.90;;;;;;5093440;28;20230;-74
2023/03/08 07:46:03;;;;;;;10.40;8.05;;;4.90;99.90;;;;;;5093117;28;20247;-75
2023/03/08 07:48:32;;;;;;;8.85;7.95;;;4.90;99.90;;;;;;5093355;28;20222;-74
2023/03/08 07:51:05;;;;;;;9.13;8.23;;;5.00;99.90;;;;;;5093194;28;20235;-75
2023/03/08 07:53:33;;;;;;;7.13;6.43;;;5.00;99.90;;;;;;5093428;28;20676;-75
2023/03/08 07:56:00;;;;;;;9.20;7.22;;;5.00;99.90;;;;;;5093615;28;20285;-73
2023/03/08 07:58:28;;;;;;;8.70;7.20;;;5.00;99.90;;;;;;5093136;28;20223;-75
2023/03/08 08:00:55;;;;;;;9.23;7.22;;;5.10;99.90;;;;;;5092049;28;20238;-75
2023/03/08 08:03:22;;;;;;;8.50;7.68;;;5.20;99.90;;;;;;5092675;28;20220;-74
2023/03/08 08:05:51;;;;;;;8.07;7.00;;;5.20;99.90;;;;;;5093310;28;20652;-74
2023/03/08 08:08:18;;;;;;;9.98;7.78;;;5.30;99.90;;;;;;5092497;28;20292;-74
2023/03/08 08:10:45;;;;;;;7.50;6.75;;;5.20;99.90;;;;;;5093044;28;20220;-74
2023/03/08 08:13:12;;;;;;;8.75;7.35;;;5.30;99.90;;;;;;5091909;28;20280;-75
2023/03/08 08:15:39;;;;;;;8.93;7.00;;;5.30;99.90;;;;;;5093361;28;20302;-74
2023/03/08 08:18:06;;;;;;;8.80;7.40;;;5.40;99.90;;;;;;5092696;28;20234;-75
2023/03/08 08:20:33;;;;;;;8.70;7.00;;;5.40;99.90;;;;;;5093433;28;20406;-74
2023/03/08 08:23:02;;;;;;;8.32;7.43;;;5.40;99.90;;;;;;5092801;28;20281;-75
2023/03/08 08:25:30;;;;;;;8.75;7.22;;;5.40;99.90;;;;;;5092911;28;20223;-76
2023/03/08 08:27:57;;;;;;;7.82;6.53;;;5.50;99.90;;;;;;5093066;28;20250;-75
2023/03/08 08:30:24;;;;;;;8.13;7.00;;;5.50;99.90;;;;;;5091691;28;20243;-74
2023/03/08 08:32:51;;;;;;;7.30;6.30;;;5.50;99.90;;;;;;5091939;28;20231;-75
2023/03/08 08:35:18;;;;;;;10.60;9.45;;;5.60;99.90;;;;;;5092170;28;20629;-75
2023/03/08 08:37:45;;;;;;;15.43;10.15;;;5.70;99.90;;;;;;5092592;28;20289;-76
2023/03/08 08:40:14;;;;;;;10.33;9.20;;;5.80;99.90;;;;;;5047058;28;1284549;-76
2023/03/08 08:42:41;;;;;;;10.68;8.18;;;5.80;99.90;;;;;;5093917;28;20219;-76
2023/03/08 08:45:09;;;;;;;7.93;6.93;;;5.90;99.90;;;;;;5093833;28;20234;-76
2023/03/08 08:47:36;;;;;;;9.00;6.35;;;5.90;99.90;;;;;;5093762;28;20404;-74
2023/03/08 08:50:03;;;;;;;7.75;6.95;;;5.90;99.90;;;;;;5094349;28;20223;-76
2023/03/08 08:52:30;;;;;;;7.35;6.60;;;5.90;99.90;;;;;;5093120;28;20511;-74
2023/03/08 08:54:58;;;;;;;6.82;5.88;;;6.00;99.90;;;;;;5093852;28;20269;-74
2023/03/08 08:57:44;;;;;;;6.72;5.80;;;6.00;99.90;;;;;;5092702;28;20568;-76
2023/03/08 09:00:12;;;;;;;7.65;6.93;;;6.10;99.90;;;;;;5092642;28;20379;-74
2023/03/08 09:02:39;;;;;;;7.57;6.30;;;6.10;99.90;;;;;;5093639;28;20211;-76
2023/03/08 09:05:07;;;;;;;12.55;7.00;;;6.10;99.90;;;;;;5094139;28;20223;-75
2023/03/08 09:07:34;;;;;;;6.30;5.22;;;6.20;99.90;;;;;;5093529;28;20226;-76
2023/03/08 09:10:01;;;;;;;6.70;5.57;;;6.20;99.90;;;;;;5093107;28;20219;-75
2023/03/08 09:12:29;;;;;;;6.55;5.95;;;6.20;99.90;;;;;;5093111;28;20238;-74
2023/03/08 09:14:58;;;;;;;7.38;6.07;;;6.20;99.90;;;;;;5093087;28;20599;-75
2023/03/08 09:17:25;;;;;;;8.48;7.57;;;6.20;99.90;;;;;;5091772;28;20741;-74
2023/03/08 09:19:52;;;;;;;8.98;7.55;;;6.30;99.90;;;;;;5092865;28;20224;-76
2023/03/08 09:22:19;;;;;;;6.03;5.53;;;6.30;99.90;;;;;;5092138;28;20292;-74
2023/03/08 09:24:49;;;;;;;7.72;6.50;;;6.40;99.90;;;;;;5092977;28;20223;-76
2023/03/08 09:27:16;;;;;;;10.75;7.35;;;6.40;99.90;;;;;;5092526;28;20254;-76
2023/03/08 09:29:43;;;;;;;7.13;6.43;;;6.40;99.90;;;;;;5090829;28;20246;-76
2023/03/08 09:32:11;;;;;;;6.80;5.70;;;6.40;99.90;;;;;;5092930;28;20618;-76
2023/03/08 09:34:38;;;;;;;6.45;4.82;;;6.50;99.90;;;;;;5092687;28;20276;-76
2023/03/08 09:37:07;;;;;;;4.88;4.35;;;6.50;99.90;;;;;;5092518;28;20563;-76
2023/03/08 09:39:34;;;;;;;5.47;4.90;;;6.60;99.90;;;;;;5091749;28;20680;-76
2023/03/08 09:42:03;;;;;;;5.68;4.45;;;6.70;99.90;;;;;;5093066;28;20219;-76
2023/03/08 09:45:02;;;;;;;6.05;4.40;;;6.70;99.90;;;;;;5091409;28;20272;-75
2023/03/08 09:47:38;;;;;;;4.82;3.80;;;6.70;99.90;;;;;;5091771;28;20223;-74
2023/03/08 09:50:17;;;;;;;4.65;3.75;;;6.80;99.90;;;;;;5092838;28;20284;-76
2023/03/08 09:52:50;;;;;;;4.32;3.70;;;6.80;99.90;;;;;;5092718;28;20310;-73
2023/03/08 09:55:28;;;;;;;3.88;3.58;;;6.90;99.90;;;;;;5093106;28;20231;-74
2023/03/08 09:57:56;;;;;;;4.85;4.38;;;7.00;99.90;;;;;;5093329;28;20241;-74
2023/03/08 10:00:28;;;;;;;4.53;3.55;;;6.90;99.90;;;;;;5090859;28;20302;-75
2023/03/08 10:03:12;;;;;;;4.38;3.28;;;7.00;99.90;;;;;;5082449;28;20281;-76
2023/03/08 10:05:46;;;;;;;7.85;3.75;;;7.00;99.90;;;;;;5091913;28;20219;-76
2023/03/08 10:08:15;;;;;;;3.75;3.45;;;7.10;99.90;;;;;;5091905;28;20247;-75
2023/03/08 10:10:52;;;;;;;6.93;3.42;;;7.10;99.90;;;;;;5092296;28;20243;-77
2023/03/08 10:13:32;;;;;;;4.80;3.55;;;7.20;99.90;;;;;;5092432;28;20284;-76
2023/03/08 10:16:09;;;;;;;5.72;4.28;;;7.20;99.90;;;;;;5091565;28;20276;-76
2023/03/08 10:18:42;;;;;;;7.35;5.03;;;7.20;99.90;;;;;;5092627;28;20226;-77
2023/03/08 10:21:12;;;;;;;4.13;3.72;;;7.20;99.90;;;;;;5091454;28;20245;-76
2023/03/08 10:23:41;;;;;;;4.00;3.65;;;7.30;99.90;;;;;;5092057;28;20230;-77
2023/03/08 10:26:12;;;;;;;3.75;3.45;;;7.30;99.90;;;;;;5092320;28;20660;-76
2023/03/08 10:28:41;;;;;;;3.85;3.45;;;7.40;99.90;;;;;;5092700;28;20223;-75
2023/03/08 10:31:27;;;;;;;4.82;3.90;;;7.40;99.90;;;;;;5090682;28;20238;-76
2023/03/08 10:34:02;;;;;;;6.40;4.30;;;7.50;99.50;;;;;;5092818;28;20252;-76
2023/03/08 10:36:32;;;;;;;5.68;5.03;;;7.50;99.40;;;;;;5092293;28;20218;-74
2023/03/08 10:39:05;;;;;;;8.05;5.85;;;7.50;99.30;;;;;;5092050;28;20227;-74
2023/03/08 10:41:42;;;;;;;5.75;5.25;;;7.50;99.20;;;;;;5091714;28;20215;-74
2023/03/08 10:44:32;;;;;;;6.88;4.63;;;7.60;99.00;;;;;;5081677;28;20227;-75
2023/03/08 10:47:18;;;;;;;4.55;4.15;;;7.60;99.10;;;;;;5092066;28;20211;-75
2023/03/08 10:49:47;;;;;;;4.97;3.80;;;7.70;99.10;;;;;;5092144;28;20242;-77
2023/03/08 10:52:25;;;;;;;3.53;3.22;;;7.70;98.50;;;;;;5091232;28;20215;-77
2023/03/08 10:55:01;;;;;;;7.38;6.20;;;7.70;98.40;;;;;;5091494;28;20292;-76
2023/03/08 10:57:29;;;;;;;7.30;5.07;;;7.70;98.50;;;;;;5092729;28;20529;-75
2023/03/08 11:00:00;;;;;;;3.90;3.60;;;7.70;98.60;;;;;;5091129;28;20242;-75
2023/03/08 11:02:27;;;;;;;4.78;3.90;;;7.70;98.40;;;;;;5092134;28;20227;-75
2023/03/08 11:04:58;;;;;;;4.03;3.65;;;7.70;98.10;;;;;;5091863;28;20223;-75
2023/03/08 11:07:29;;;;;;;3.28;2.75;;;7.80;98.20;;;;;;5091457;28;20284;-75
2023/03/08 11:10:14;;;;;;;3.38;2.80;;;7.80;98.10;;;;;;5090861;28;20216;-74
2023/03/08 11:12:46;;;;;;;3.13;2.83;;;7.90;97.80;;;;;;5092142;28;20254;-77
2023/03/08 11:15:14;;;;;;;3.63;3.30;;;7.90;96.90;;;;;;5091432;28;20288;-75
2023/03/08 11:17:55;;;;;;;4.53;3.72;;;7.90;97.00;;;;;;5091941;28;20223;-75
2023/03/08 11:20:28;;;;;;;3.30;3.05;;;7.90;97.20;;;;;;5091503;28;20253;-76
2023/03/08 11:23:09;;;;;;;3.88;3.58;;;7.90;96.90;;;;;;5091626;28;20231;-76
2023/03/08 11:25:46;;;;;;;3.42;3.10;;;8.00;96.90;;;;;;5092569;28;20215;-76
2023/03/08 11:28:57;;;;;;;4.47;4.10;;;8.00;97.10;;;;;;5092069;28;20647;-76
2023/03/08 11:31:30;;;;;;;4.28;3.92;;;8.00;96.80;;;;;;5030090;28;20225;-76
2023/03/08 11:34:29;;;;;;;4.65;4.25;;;8.00;97.00;;;;;;5088008;28;20224;-76
2023/03/08 11:37:05;;;;;;;7.50;5.80;;;8.00;97.10;;;;;;5082751;28;20220;-76
2023/03/08 11:39:34;;;;;;;6.18;5.55;;;8.00;97.40;;;;;;5095157;28;20294;-75
2023/03/08 11:42:10;;;;;;;7.80;7.10;;;8.10;97.20;;;;;;5094935;28;20239;-76
2023/03/08 11:44:54;;;;;;;13.55;12.15;;;8.10;97.30;;;;;;5094627;28;20226;-75
2023/03/08 11:47:50;;;;;;;8.50;7.60;;;8.10;97.20;;;;;;5095316;28;20219;-75
2023/03/08 11:50:22;;;;;;;14.63;13.13;;;8.00;96.80;;;;;;5095685;28;20219;-75
2023/03/08 11:53:01;;;;;;;18.27;16.63;;;8.00;97.10;;;;;;5094428;28;20228;-75
2023/03/08 11:55:45;;;;;;;9.55;8.48;;;8.00;97.30;;;;;;5094472;28;20254;-75
2023/03/08 11:58:19;;;;;;;6.82;6.20;;;8.10;97.20;;;;;;5094629;28;20227;-75
2023/03/08 12:00:48;;;;;;;7.63;7.03;;;8.10;97.30;;;;;;5093682;28;20218;-76
2023/03/08 12:03:18;;;;;;;5.40;4.90;;;8.10;96.80;;;;;;5095108;28;20223;-74
2023/03/08 12:05:50;;;;;;;10.55;5.47;;;8.10;96.20;;;;;;5084085;28;20234;-76
2023/03/08 12:08:22;;;;;;;4.78;4.00;;;8.00;95.30;;;;;;5093865;28;20315;-76
2023/03/08 12:10:56;;;;;;;5.10;4.65;;;8.00;95.10;;;;;;5093991;28;20601;-76
2023/03/08 12:13:29;;;;;;;3.45;3.15;;;8.00;94.70;;;;;;5094793;28;20223;-75
2023/03/08 12:16:02;;;;;;;3.53;3.30;;;7.90;94.50;;;;;;5090273;28;20220;-76
2023/03/08 12:18:36;;;;;;;5.72;3.63;;;8.00;94.70;;;;;;5092853;28;20235;-75
2023/03/08 12:21:15;;;;;;;3.58;3.28;;;7.90;94.20;;;;;;5093570;28;20242;-75
2023/03/08 12:23:51;;;;;;;7.50;3.80;;;7.80;93.80;;;;;;5093442;28;20708;-75
2023/03/08 12:26:21;;;;;;;5.95;5.45;;;7.80;94.50;;;;;;5094332;28;20237;-75
2023/03/08 12:28:54;;;;;;;6.03;4.00;;;7.80;94.80;;;;;;5092775;28;20227;-75
2023/03/08 12:31:27;;;;;;;6.15;5.65;;;7.80;94.70;;;;;;5083276;28;20284;-75
2023/03/08 12:34:02;;;;;;;5.97;5.38;;;7.80;94.50;;;;;;5093795;28;20235;-75
2023/03/08 12:36:40;;;;;;;4.78;4.13;;;7.80;94.50;;;;;;5093669;28;20672;-74
2023/03/08 12:39:22;;;;;;;6.15;4.53;;;7.80;94.80;;;;;;5092988;28;20234;-73
2023/03/08 12:41:58;;;;;;;5.00;4.30;;;7.70;94.70;;;;;;5082972;28;20234;-75
2023/03/08 12:44:27;;;;;;;6.10;5.60;;;7.70;94.80;;;;;;5091942;28;20243;-74
2023/03/08 12:46:57;;;;;;;4.00;3.60;;;7.70;95.00;;;;;;5082618;28;20223;-74
2023/03/08 12:49:29;;;;;;;5.45;4.72;;;7.70;95.00;;;;;;5087989;28;20303;-75
2023/03/08 12:52:02;;;;;;;5.65;5.05;;;7.70;95.00;;;;;;5088356;28;20231;-74
2023/03/08 12:54:33;;;;;;;5.97;5.38;;;7.80;95.00;;;;;;5086802;28;20222;-74
2023/03/08 12:57:01;;;;;;;6.72;6.18;;;7.80;95.00;;;;;;5093144;28;20305;-74
2023/03/08 12:59:36;;;;;;;7.00;6.30;;;7.80;95.10;;;;;;5086367;28;20228;-75
2023/03/08 13:02:21;;;;;;;4.78;3.92;;;7.80;95.30;;;;;;5093164;28;20231;-76
2023/03/08 13:04:48;;;;;;;4.15;3.65;;;7.80;94.90;;;;;;5093468;28;20323;-75
2023/03/08 13:07:27;;;;;;;5.20;4.70;;;7.80;95.10;;;;;;5092787;28;20250;-76
2023/03/08 13:10:01;;;;;;;8.18;7.47;;;7.80;95.30;;;;;;5093185;28;20567;-75
2023/03/08 13:12:38;;;;;;;7.22;6.63;;;7.80;94.90;;;;;;5092779;28;20226;-76
2023/03/08 13:15:24;;;;;;;7.60;5.45;;;7.80;94.90;;;;;;5092345;28;20242;-74